Time;durP1;ratioP1;P1;durP2;ratioP2;P2;SDS_P1;SDS_P2;PMS_P1;PMS_P2;Temp;Humidity;BMP_temperature;BMP_pressure;BME280_temperature;BME280_humidity;BME280_pressure;Samples;Min_cycle;Max_cycle;Signal;HPM_P1;HPM_P2
2023/08/27 00:01:52;;;;;;;6.00;4.10;;;;;;;;;;5036648;28;20561;-65
2023/08/27 00:04:19;;;;;;;5.32;3.85;;;;;;;;;;5034015;28;20429;-65
2023/08/27 00:06:46;;;;;;;6.50;3.70;;;;;;;;;;5019926;28;20563;-65
2023/08/27 00:09:13;;;;;;;5.30;3.92;;;;;;;;;;5034990;28;20528;-65
2023/08/27 00:11:42;;;;;;;4.85;3.90;;;;;;;;;;5034292;28;20510;-63
2023/08/27 00:14:09;;;;;;;7.97;4.13;;;;;;;;;;5034825;28;20438;-64
2023/08/27 00:16:37;;;;;;;5.23;3.43;;;;;;;;;;5031916;28;20430;-64
2023/08/27 00:19:05;;;;;;;4.00;3.10;;;;;;;;;;5031440;28;20433;-64
2023/08/27 00:21:32;;;;;;;4.00;2.90;;;;;;;;;;5033890;28;20627;-64
2023/08/27 00:23:59;;;;;;;4.15;3.15;;;;;;;;;;5032079;28;20447;-64
2023/08/27 00:26:27;;;;;;;4.78;3.53;;;;;;;;;;5035127;28;20579;-64
2023/08/27 00:28:55;;;;;;;4.40;3.40;;;;;;;;;;5033994;28;20892;-64
2023/08/27 00:31:22;;;;;;;5.75;3.50;;;;;;;;;;5034620;28;20446;-64
2023/08/27 00:33:50;;;;;;;4.47;3.70;;;;;;;;;;5032278;28;20470;-64
2023/08/27 00:36:17;;;;;;;4.85;3.70;;;;;;;;;;5032387;28;20433;-64
2023/08/27 00:38:44;;;;;;;5.68;3.40;;;;;;;;;;5034632;28;21133;-64
2023/08/27 00:41:11;;;;;;;5.70;3.95;;;;;;;;;;5033280;28;23025;-64
2023/08/27 00:43:41;;;;;;;4.05;3.55;;;;;;;;;;5035509;28;20937;-64
2023/08/27 00:46:09;;;;;;;3.33;3.03;;;;;;;;;;5031073;28;21227;-64
2023/08/27 00:48:37;;;;;;;5.32;3.50;;;;;;;;;;5035332;28;20460;-64
2023/08/27 00:51:04;;;;;;;7.15;3.88;;;;;;;;;;5031789;28;20490;-64
2023/08/27 00:53:32;;;;;;;6.03;3.50;;;;;;;;;;5036260;28;20447;-64
2023/08/27 00:55:59;;;;;;;4.07;3.53;;;;;;;;;;5031232;28;20577;-64
2023/08/27 00:58:26;;;;;;;5.95;3.25;;;;;;;;;;5026814;28;20437;-64
2023/08/27 01:00:54;;;;;;;3.58;3.28;;;;;;;;;;5030467;28;20468;-64
2023/08/27 01:03:21;;;;;;;4.68;3.17;;;;;;;;;;5032820;28;20436;-64
2023/08/27 01:05:48;;;;;;;4.35;3.10;;;;;;;;;;5032544;28;20436;-64
2023/08/27 01:08:38;;;;;;;5.97;3.25;;;;;;;;;;5034781;28;20970;-64
2023/08/27 01:11:08;;;;;;;4.47;3.43;;;;;;;;;;5033099;28;20517;-64
2023/08/27 01:13:50;;;;;;;6.15;3.63;;;;;;;;;;5032613;28;20973;-65
2023/08/27 01:16:21;;;;;;;4.20;3.80;;;;;;;;;;5034330;28;20429;-65
2023/08/27 01:18:50;;;;;;;3.97;3.58;;;;;;;;;;5034232;28;20536;-65
2023/08/27 01:21:19;;;;;;;4.32;3.88;;;;;;;;;;5033638;28;20571;-65
2023/08/27 01:23:46;;;;;;;5.20;3.90;;;;;;;;;;5032315;28;20436;-65
2023/08/27 01:26:16;;;;;;;4.93;4.38;;;;;;;;;;5033043;28;20429;-64
2023/08/27 01:28:45;;;;;;;7.30;4.50;;;;;;;;;;5032526;28;20453;-65
2023/08/27 01:31:17;;;;;;;4.32;3.92;;;;;;;;;;5029912;28;20553;-65
2023/08/27 01:33:46;;;;;;;5.57;4.72;;;;;;;;;;5032850;28;20444;-64
2023/08/27 01:36:14;;;;;;;7.53;5.32;;;;;;;;;;5030893;28;20441;-65
2023/08/27 01:38:41;;;;;;;5.93;4.97;;;;;;;;;;5031257;28;20437;-65
2023/08/27 01:41:09;;;;;;;6.33;5.20;;;;;;;;;;5029265;28;20430;-65
2023/08/27 01:43:36;;;;;;;5.20;4.27;;;;;;;;;;5037995;28;20498;-64
2023/08/27 01:46:03;;;;;;;7.65;4.43;;;;;;;;;;5032773;28;21096;-65
2023/08/27 01:48:30;;;;;;;6.70;4.80;;;;;;;;;;5032678;28;20472;-64
2023/08/27 01:50:58;;;;;;;5.38;4.25;;;;;;;;;;5035110;28;20794;-65
2023/08/27 01:53:25;;;;;;;7.05;4.00;;;;;;;;;;5033715;28;20429;-65
2023/08/27 01:55:52;;;;;;;4.70;4.10;;;;;;;;;;5034004;28;20433;-65
2023/08/27 01:58:19;;;;;;;7.57;4.50;;;;;;;;;;5030720;28;20442;-65
2023/08/27 02:00:48;;;;;;;7.55;4.75;;;;;;;;;;5029689;28;20547;-65
2023/08/27 02:03:16;;;;;;;5.68;4.20;;;;;;;;;;5031644;28;20433;-65
2023/08/27 02:05:47;;;;;;;6.18;4.57;;;;;;;;;;5032237;28;20429;-64
2023/08/27 02:08:15;;;;;;;6.60;4.60;;;;;;;;;;5032338;28;20441;-65
2023/08/27 02:10:42;;;;;;;5.38;4.88;;;;;;;;;;5030720;28;20585;-64
2023/08/27 02:13:09;;;;;;;8.77;4.93;;;;;;;;;;5032096;28;20437;-65
2023/08/27 02:15:36;;;;;;;6.97;4.82;;;;;;;;;;5030147;28;20520;-65
2023/08/27 02:18:04;;;;;;;7.67;4.97;;;;;;;;;;5029314;28;21235;-64
2023/08/27 02:20:31;;;;;;;7.53;4.72;;;;;;;;;;5030955;28;20429;-64
2023/08/27 02:22:58;;;;;;;4.60;4.20;;;;;;;;;;5032221;28;20499;-64
2023/08/27 02:25:26;;;;;;;6.78;4.25;;;;;;;;;;5034157;28;20441;-64
2023/08/27 02:27:53;;;;;;;6.45;4.55;;;;;;;;;;5032045;28;20440;-64
2023/08/27 02:30:21;;;;;;;5.20;4.70;;;;;;;;;;5032532;28;20649;-65
2023/08/27 02:32:48;;;;;;;5.35;4.45;;;;;;;;;;5033246;28;20524;-64
2023/08/27 02:35:15;;;;;;;9.63;5.25;;;;;;;;;;5030776;28;20940;-64
2023/08/27 02:37:42;;;;;;;9.68;5.47;;;;;;;;;;5028502;28;20433;-65
2023/08/27 02:40:09;;;;;;;7.43;5.15;;;;;;;;;;5031088;28;20859;-64
2023/08/27 02:42:37;;;;;;;8.85;5.47;;;;;;;;;;5032556;28;20562;-64
2023/08/27 02:45:07;;;;;;;7.45;4.50;;;;;;;;;;5033887;28;20440;-64
2023/08/27 02:47:34;;;;;;;7.85;4.80;;;;;;;;;;5031554;28;20638;-64
2023/08/27 02:50:03;;;;;;;5.15;4.50;;;;;;;;;;5032490;28;20484;-64
2023/08/27 02:52:30;;;;;;;5.13;4.18;;;;;;;;;;5029012;28;20558;-64
2023/08/27 02:54:57;;;;;;;5.68;4.28;;;;;;;;;;5030219;28;20536;-64
2023/08/27 02:57:24;;;;;;;6.35;4.53;;;;;;;;;;5030752;28;20434;-64
2023/08/27 02:59:51;;;;;;;4.55;4.03;;;;;;;;;;5030185;28;20570;-64
2023/08/27 03:02:19;;;;;;;4.80;4.20;;;;;;;;;;5026212;28;20478;-65
2023/08/27 03:04:46;;;;;;;4.47;3.67;;;;;;;;;;5030127;28;20434;-64
2023/08/27 03:07:16;;;;;;;7.70;3.93;;;;;;;;;;5030481;28;20438;-64
2023/08/27 03:09:45;;;;;;;4.28;3.83;;;;;;;;;;5031157;28;20440;-64
2023/08/27 03:12:14;;;;;;;4.10;3.78;;;;;;;;;;5032919;28;20520;-65
2023/08/27 03:14:41;;;;;;;7.22;4.80;;;;;;;;;;5034820;28;21502;-64
2023/08/27 03:17:08;;;;;;;4.97;4.50;;;;;;;;;;5035973;28;20431;-65
2023/08/27 03:19:38;;;;;;;9.57;4.80;;;;;;;;;;5035387;28;20445;-65
2023/08/27 03:22:08;;;;;;;6.93;4.45;;;;;;;;;;5035025;28;20998;-64
2023/08/27 03:24:36;;;;;;;8.48;4.63;;;;;;;;;;5016157;28;20439;-64
2023/08/27 03:27:03;;;;;;;9.43;5.10;;;;;;;;;;5034931;28;20522;-64
2023/08/27 03:29:30;;;;;;;8.05;5.30;;;;;;;;;;5032993;28;20571;-64
2023/08/27 03:31:57;;;;;;;5.95;5.20;;;;;;;;;;5035267;28;21068;-64
2023/08/27 03:34:25;;;;;;;8.77;5.03;;;;;;;;;;5035630;28;20468;-64
2023/08/27 03:36:52;;;;;;;4.97;4.47;;;;;;;;;;5033636;28;20787;-64
2023/08/27 03:39:19;;;;;;;8.32;4.70;;;;;;;;;;5035447;28;20469;-64
2023/08/27 03:41:46;;;;;;;4.97;4.32;;;;;;;;;;5034546;28;20522;-64
2023/08/27 03:44:13;;;;;;;7.28;4.40;;;;;;;;;;5039588;28;20448;-64
2023/08/27 03:46:41;;;;;;;8.05;4.80;;;;;;;;;;5033998;28;20437;-64
2023/08/27 03:49:08;;;;;;;9.43;5.47;;;;;;;;;;5032791;28;20748;-64
2023/08/27 03:51:35;;;;;;;8.85;4.88;;;;;;;;;;5035619;28;20724;-64
2023/08/27 03:54:02;;;;;;;6.85;4.95;;;;;;;;;;5032414;28;20495;-64
2023/08/27 03:56:30;;;;;;;7.25;4.68;;;;;;;;;;5033643;28;20602;-64
2023/08/27 03:58:57;;;;;;;5.13;4.35;;;;;;;;;;5035719;28;20441;-64
2023/08/27 04:01:24;;;;;;;6.25;4.20;;;;;;;;;;5031365;28;20445;-64
2023/08/27 04:03:53;;;;;;;6.03;4.45;;;;;;;;;;5032664;28;20442;-64
2023/08/27 04:06:20;;;;;;;6.25;4.90;;;;;;;;;;5034970;28;20449;-64
2023/08/27 04:08:51;;;;;;;6.93;4.20;;;;;;;;;;5035608;28;20616;-64
2023/08/27 04:11:18;;;;;;;8.23;4.75;;;;;;;;;;5034089;28;20433;-64
2023/08/27 04:13:45;;;;;;;5.80;4.67;;;;;;;;;;5033483;28;21112;-65
2023/08/27 04:16:12;;;;;;;5.40;4.70;;;;;;;;;;5035319;28;20437;-64
2023/08/27 04:18:39;;;;;;;7.73;4.70;;;;;;;;;;5033579;28;20433;-64
2023/08/27 04:21:07;;;;;;;6.55;5.13;;;;;;;;;;5029946;28;20532;-64
2023/08/27 04:23:34;;;;;;;6.80;5.60;;;;;;;;;;5034550;28;20433;-64
2023/08/27 04:26:03;;;;;;;8.02;5.45;;;;;;;;;;5031802;28;20448;-65
2023/08/27 04:28:31;;;;;;;7.45;5.47;;;;;;;;;;5034018;28;20437;-64
2023/08/27 04:30:58;;;;;;;8.90;6.43;;;;;;;;;;5031899;28;20433;-64
2023/08/27 04:33:26;;;;;;;8.13;7.28;;;;;;;;;;5031045;28;20429;-63
2023/08/27 04:35:53;;;;;;;9.23;7.00;;;;;;;;;;5034675;28;20528;-63
2023/08/27 04:38:21;;;;;;;12.48;6.68;;;;;;;;;;5032852;28;20456;-63
2023/08/27 04:40:55;;;;;;;11.77;6.70;;;;;;;;;;5033691;28;20550;-63
2023/08/27 04:43:22;;;;;;;7.55;6.22;;;;;;;;;;5036349;28;20838;-63
2023/08/27 04:45:49;;;;;;;10.85;6.50;;;;;;;;;;5032607;28;20443;-63
2023/08/27 04:48:17;;;;;;;12.95;6.55;;;;;;;;;;5035234;28;20443;-63
2023/08/27 04:50:45;;;;;;;10.88;6.30;;;;;;;;;;5035149;28;20424;-63
2023/08/27 04:53:12;;;;;;;8.02;6.30;;;;;;;;;;5032556;28;20433;-63
2023/08/27 04:55:39;;;;;;;8.15;6.20;;;;;;;;;;5031908;28;20989;-63
2023/08/27 04:58:08;;;;;;;9.15;6.28;;;;;;;;;;5034669;28;20433;-64
2023/08/27 05:00:35;;;;;;;7.53;5.35;;;;;;;;;;5033164;28;20433;-64
2023/08/27 05:03:03;;;;;;;10.27;5.20;;;;;;;;;;5026465;28;20439;-63
2023/08/27 05:05:30;;;;;;;5.87;4.40;;;;;;;;;;5029210;28;21170;-64
2023/08/27 05:08:00;;;;;;;5.90;5.20;;;;;;;;;;5033175;28;21488;-63
2023/08/27 05:10:28;;;;;;;12.38;5.07;;;;;;;;;;5032970;28;20495;-63
2023/08/27 05:12:55;;;;;;;5.60;5.07;;;;;;;;;;5033589;28;20471;-64
2023/08/27 05:15:22;;;;;;;6.28;5.03;;;;;;;;;;5031765;28;20433;-63
2023/08/27 05:17:49;;;;;;;7.03;4.82;;;;;;;;;;5032214;28;20523;-63
2023/08/27 05:20:17;;;;;;;8.32;5.00;;;;;;;;;;5033033;28;20535;-64
2023/08/27 05:22:44;;;;;;;9.63;5.55;;;;;;;;;;5032170;28;20437;-64
2023/08/27 05:25:11;;;;;;;6.00;5.40;;;;;;;;;;5031769;28;20437;-63
2023/08/27 05:27:44;;;;;;;6.07;5.47;;;;;;;;;;5033495;28;20517;-64
2023/08/27 05:30:15;;;;;;;5.40;4.90;;;;;;;;;;5032461;28;20555;-63
2023/08/27 05:32:43;;;;;;;8.13;5.47;;;;;;;;;;5030537;28;20444;-63
2023/08/27 05:35:10;;;;;;;6.03;5.15;;;;;;;;;;5030216;28;20481;-63
2023/08/27 05:37:38;;;;;;;5.78;5.28;;;;;;;;;;5032578;28;20935;-64
2023/08/27 05:40:05;;;;;;;9.40;5.80;;;;;;;;;;5034111;28;20827;-64
2023/08/27 05:42:33;;;;;;;5.85;5.32;;;;;;;;;;5029949;28;20498;-64
2023/08/27 05:45:00;;;;;;;5.80;5.20;;;;;;;;;;5036767;28;20497;-64
2023/08/27 05:47:31;;;;;;;8.73;5.15;;;;;;;;;;5030798;28;20964;-64
2023/08/27 05:49:58;;;;;;;5.55;5.13;;;;;;;;;;5032271;28;20433;-64
2023/08/27 05:52:26;;;;;;;5.35;4.70;;;;;;;;;;5033382;28;20471;-64
2023/08/27 05:54:53;;;;;;;6.32;5.03;;;;;;;;;;5033632;28;20431;-64
2023/08/27 05:57:20;;;;;;;6.17;5.07;;;;;;;;;;5033141;28;20435;-64
2023/08/27 05:59:47;;;;;;;5.07;4.68;;;;;;;;;;5030874;28;20515;-64
2023/08/27 06:02:14;;;;;;;6.70;4.75;;;;;;;;;;5032806;28;21503;-64
2023/08/27 06:04:42;;;;;;;4.93;4.53;;;;;;;;;;5046736;28;20526;-64
2023/08/27 06:07:10;;;;;;;5.87;4.77;;;;;;;;;;5032148;28;21511;-64
2023/08/27 06:09:37;;;;;;;5.53;4.45;;;;;;;;;;5031526;28;20524;-64
2023/08/27 06:12:06;;;;;;;5.38;4.38;;;;;;;;;;5031293;28;20464;-64
2023/08/27 06:14:33;;;;;;;5.13;4.30;;;;;;;;;;5026297;28;20429;-63
2023/08/27 06:17:03;;;;;;;4.60;4.18;;;;;;;;;;5032299;28;20502;-64
2023/08/27 06:19:31;;;;;;;7.10;4.30;;;;;;;;;;5033828;28;20483;-63
2023/08/27 06:22:14;;;;;;;6.15;4.35;;;;;;;;;;5033672;28;20435;-63
2023/08/27 06:24:42;;;;;;;7.32;4.05;;;;;;;;;;5028900;28;20506;-64
2023/08/27 06:27:09;;;;;;;4.43;3.63;;;;;;;;;;5031214;28;20444;-63
2023/08/27 06:29:36;;;;;;;6.10;3.92;;;;;;;;;;5031655;28;20440;-64
2023/08/27 06:32:03;;;;;;;4.10;3.70;;;;;;;;;;5029337;28;20456;-63
2023/08/27 06:34:30;;;;;;;5.63;3.85;;;;;;;;;;5030484;28;20562;-63
2023/08/27 06:36:58;;;;;;;4.97;3.88;;;;;;;;;;5030760;28;20434;-64
2023/08/27 06:39:27;;;;;;;7.63;3.80;;;;;;;;;;5028424;28;20883;-63
2023/08/27 06:41:55;;;;;;;3.88;3.58;;;;;;;;;;5032802;28;20536;-64
2023/08/27 06:44:22;;;;;;;6.63;3.85;;;;;;;;;;5034371;28;20435;-63
2023/08/27 06:46:54;;;;;;;6.25;4.15;;;;;;;;;;5033647;28;20439;-63
2023/08/27 06:49:21;;;;;;;5.10;4.65;;;;;;;;;;5034805;28;20417;-63
2023/08/27 06:51:48;;;;;;;7.75;4.78;;;;;;;;;;5037299;28;20460;-63
2023/08/27 06:54:16;;;;;;;5.55;4.00;;;;;;;;;;5033213;28;20433;-63
2023/08/27 06:56:43;;;;;;;6.00;4.10;;;;;;;;;;5031767;28;20471;-63
2023/08/27 06:59:10;;;;;;;4.40;4.00;;;;;;;;;;5034422;28;20460;-63
2023/08/27 07:01:39;;;;;;;6.85;4.30;;;;;;;;;;5035428;28;20438;-64
2023/08/27 07:04:07;;;;;;;4.72;4.25;;;;;;;;;;5031949;28;20441;-64
2023/08/27 07:06:34;;;;;;;4.10;3.80;;;;;;;;;;5029871;28;20450;-64
2023/08/27 07:09:01;;;;;;;6.73;4.83;;;;;;;;;;5018613;28;20463;-64
2023/08/27 07:11:29;;;;;;;5.43;4.20;;;;;;;;;;5033730;28;20563;-64
2023/08/27 07:13:56;;;;;;;4.93;4.47;;;;;;;;;;5033666;28;21037;-65
2023/08/27 07:16:23;;;;;;;4.78;4.35;;;;;;;;;;5031514;28;20487;-65
2023/08/27 07:18:50;;;;;;;5.22;4.38;;;;;;;;;;5025072;28;20432;-65
2023/08/27 07:21:18;;;;;;;7.63;4.90;;;;;;;;;;5024222;28;20887;-65
2023/08/27 07:23:48;;;;;;;6.53;4.72;;;;;;;;;;5028877;28;21005;-65
2023/08/27 07:26:15;;;;;;;5.43;4.00;;;;;;;;;;5031078;28;21567;-65
2023/08/27 07:28:42;;;;;;;4.05;3.72;;;;;;;;;;5028880;28;20421;-65
2023/08/27 07:31:10;;;;;;;6.32;3.97;;;;;;;;;;5024149;28;20493;-64
2023/08/27 07:33:37;;;;;;;7.00;4.00;;;;;;;;;;5029060;28;20437;-65
2023/08/27 07:36:04;;;;;;;6.27;3.83;;;;;;;;;;5029996;28;20427;-64
2023/08/27 07:38:31;;;;;;;6.85;3.90;;;;;;;;;;5036344;28;20433;-64
2023/08/27 07:40:58;;;;;;;5.47;4.28;;;;;;;;;;5032911;28;20425;-64
2023/08/27 07:43:26;;;;;;;5.63;4.07;;;;;;;;;;5037324;28;20490;-64
2023/08/27 07:45:53;;;;;;;5.70;3.97;;;;;;;;;;5032519;28;20441;-64
2023/08/27 07:48:20;;;;;;;4.10;3.78;;;;;;;;;;5034530;28;20504;-64
2023/08/27 07:50:50;;;;;;;5.32;3.92;;;;;;;;;;5036715;28;20508;-64
2023/08/27 07:53:18;;;;;;;6.53;3.78;;;;;;;;;;5036752;28;20538;-64
2023/08/27 07:55:45;;;;;;;5.50;4.07;;;;;;;;;;5034277;28;20513;-65
2023/08/27 07:58:14;;;;;;;6.13;4.18;;;;;;;;;;5031949;28;20433;-64
2023/08/27 08:00:41;;;;;;;6.57;3.88;;;;;;;;;;5032291;28;20441;-64
2023/08/27 08:03:08;;;;;;;4.65;4.28;;;;;;;;;;5020546;28;20731;-64
2023/08/27 08:05:36;;;;;;;6.93;3.60;;;;;;;;;;5024652;28;20524;-64
2023/08/27 08:08:03;;;;;;;6.25;3.90;;;;;;;;;;5031203;28;20549;-64
2023/08/27 08:10:30;;;;;;;4.30;3.90;;;;;;;;;;5013608;28;20470;-64
2023/08/27 08:12:57;;;;;;;6.38;3.65;;;;;;;;;;5028104;28;20443;-65
2023/08/27 08:15:25;;;;;;;5.75;3.90;;;;;;;;;;5032649;28;20440;-65
2023/08/27 08:17:52;;;;;;;6.88;4.28;;;;;;;;;;5033673;28;20508;-64
2023/08/27 08:20:19;;;;;;;5.13;4.03;;;;;;;;;;5033807;28;20511;-65
2023/08/27 08:22:46;;;;;;;6.20;3.88;;;;;;;;;;5028982;28;20427;-65
2023/08/27 08:25:13;;;;;;;4.45;4.05;;;;;;;;;;5032841;28;20444;-64
2023/08/27 08:27:40;;;;;;;4.32;3.90;;;;;;;;;;5032781;28;21124;-66
2023/08/27 08:30:08;;;;;;;6.63;4.07;;;;;;;;;;5031648;28;20461;-66
2023/08/27 08:32:35;;;;;;;6.00;4.38;;;;;;;;;;5030431;28;20441;-68
2023/08/27 08:35:03;;;;;;;5.45;4.45;;;;;;;;;;5013137;28;20438;-70
2023/08/27 08:37:30;;;;;;;5.40;3.90;;;;;;;;;;5034102;28;20429;-70
2023/08/27 08:39:57;;;;;;;4.55;3.88;;;;;;;;;;5032190;28;20444;-71
2023/08/27 08:42:35;;;;;;;3.83;3.55;;;;;;;;;;5031103;28;21550;-68
2023/08/27 08:45:16;;;;;;;4.65;3.70;;;;;;;;;;5035573;28;20437;-72
2023/08/27 08:47:44;;;;;;;4.25;3.42;;;;;;;;;;5031124;28;20526;-70
2023/08/27 08:50:13;;;;;;;7.57;3.80;;;;;;;;;;5031198;28;20465;-72
2023/08/27 08:52:44;;;;;;;6.82;4.10;;;;;;;;;;5032503;28;20429;-70
2023/08/27 08:55:16;;;;;;;9.20;4.03;;;;;;;;;;5031388;28;20433;-74
2023/08/27 08:57:45;;;;;;;6.53;4.22;;;;;;;;;;5029466;28;20463;-70
2023/08/27 09:00:13;;;;;;;7.77;4.60;;;;;;;;;;5032261;28;20518;-73
2023/08/27 09:02:41;;;;;;;9.47;4.87;;;;;;;;;;5032140;28;21547;-74
2023/08/27 09:05:10;;;;;;;7.05;5.07;;;;;;;;;;5020202;28;20434;-76
2023/08/27 09:07:42;;;;;;;7.68;5.03;;;;;;;;;;5028817;28;20553;-74
2023/08/27 09:10:10;;;;;;;10.82;6.75;;;;;;;;;;5029370;28;20513;-74
2023/08/27 09:12:40;;;;;;;15.93;8.65;;;;;;;;;;5030650;28;20524;-73
2023/08/27 09:15:10;;;;;;;16.08;9.00;;;;;;;;;;5025885;28;20572;-73
2023/08/27 09:17:38;;;;;;;15.57;9.65;;;;;;;;;;5023315;28;20526;-74
2023/08/27 09:20:07;;;;;;;15.83;9.93;;;;;;;;;;5023670;28;20441;-70
2023/08/27 09:22:35;;;;;;;18.27;10.73;;;;;;;;;;5028605;28;20973;-70
2023/08/27 09:25:04;;;;;;;28.00;14.07;;;;;;;;;;5026637;28;20444;-69
2023/08/27 09:27:32;;;;;;;27.70;14.15;;;;;;;;;;5030635;28;20433;-73
2023/08/27 09:30:00;;;;;;;23.02;12.10;;;;;;;;;;5020791;28;20447;-68
2023/08/27 09:32:28;;;;;;;23.00;12.57;;;;;;;;;;5025745;28;20648;-74
2023/08/27 09:34:59;;;;;;;21.30;12.70;;;;;;;;;;5013358;28;20437;-79
2023/08/27 09:37:27;;;;;;;19.75;11.65;;;;;;;;;;5033001;28;20552;-75
2023/08/27 09:39:57;;;;;;;19.73;11.23;;;;;;;;;;5032015;28;20429;-75
2023/08/27 09:42:25;;;;;;;15.00;10.48;;;;;;;;;;5026838;28;20437;-76
2023/08/27 09:44:52;;;;;;;15.60;10.57;;;;;;;;;;5034159;28;20439;-75
2023/08/27 09:47:32;;;;;;;15.70;10.65;;;;;;;;;;5028969;28;20976;-74
2023/08/27 09:50:06;;;;;;;13.05;9.95;;;;;;;;;;5034650;28;20448;-74
2023/08/27 09:52:34;;;;;;;15.30;10.27;;;;;;;;;;5039665;28;20511;-76
2023/08/27 09:55:02;;;;;;;14.68;9.73;;;;;;;;;;5035968;28;20422;-78
2023/08/27 09:57:30;;;;;;;13.80;8.88;;;;;;;;;;5043579;28;20433;-77
2023/08/27 09:59:58;;;;;;;12.75;9.10;;;;;;;;;;5040819;28;20788;-73
2023/08/27 10:02:25;;;;;;;12.10;8.53;;;;;;;;;;5032973;28;20923;-78
2023/08/27 10:04:56;;;;;;;11.05;8.55;;;;;;;;;;5031624;28;20440;-73
2023/08/27 10:07:24;;;;;;;10.40;8.53;;;;;;;;;;5018039;28;21038;-77
2023/08/27 10:09:54;;;;;;;12.60;9.00;;;;;;;;;;5030875;28;20429;-76
2023/08/27 10:12:22;;;;;;;11.50;9.33;;;;;;;;;;5034737;28;21088;-75
2023/08/27 10:14:49;;;;;;;12.40;8.52;;;;;;;;;;5030450;28;20442;-75
2023/08/27 10:17:17;;;;;;;11.98;8.07;;;;;;;;;;5028434;28;20435;-71
2023/08/27 10:19:45;;;;;;;11.88;8.23;;;;;;;;;;5031420;28;20449;-76
2023/08/27 10:22:13;;;;;;;9.02;7.07;;;;;;;;;;5033315;28;20915;-77
2023/08/27 10:24:40;;;;;;;12.15;7.65;;;;;;;;;;5025749;28;20451;-76
2023/08/27 10:27:07;;;;;;;10.07;7.68;;;;;;;;;;5031530;28;21360;-74
2023/08/27 10:29:34;;;;;;;7.65;6.53;;;;;;;;;;5028157;28;20685;-74
2023/08/27 10:32:04;;;;;;;10.43;6.82;;;;;;;;;;5031145;28;20429;-78
2023/08/27 10:34:32;;;;;;;8.73;7.65;;;;;;;;;;5028708;28;20440;-77
2023/08/27 10:37:01;;;;;;;8.82;7.25;;;;;;;;;;5031667;28;20429;-77
2023/08/27 10:39:29;;;;;;;9.17;6.80;;;;;;;;;;5037230;28;20509;-78
2023/08/27 10:41:57;;;;;;;7.97;5.50;;;;;;;;;;5027907;28;20464;-78
2023/08/27 10:44:24;;;;;;;7.47;5.47;;;;;;;;;;5039490;28;20527;-70
2023/08/27 10:47:17;;;;;;;9.20;6.18;;;;;;;;;;5015605;28;20432;-72
2023/08/27 10:49:48;;;;;;;8.25;7.03;;;;;;;;;;5034614;28;20432;-75
2023/08/27 10:52:20;;;;;;;8.55;6.38;;;;;;;;;;5018812;28;20461;-77
2023/08/27 10:54:48;;;;;;;9.75;6.30;;;;;;;;;;5026005;28;21723;-78
2023/08/27 10:57:20;;;;;;;7.97;5.95;;;;;;;;;;5035017;28;20433;-76
2023/08/27 10:59:48;;;;;;;7.28;5.95;;;;;;;;;;5033975;28;20433;-77
2023/08/27 11:02:16;;;;;;;8.60;6.22;;;;;;;;;;5032009;28;20460;-77
2023/08/27 11:04:46;;;;;;;8.43;6.35;;;;;;;;;;5008587;28;20433;-74
2023/08/27 11:07:17;;;;;;;8.88;6.72;;;;;;;;;;5036671;28;20496;-77
2023/08/27 11:09:54;;;;;;;7.38;6.03;;;;;;;;;;5029147;28;21156;-78
2023/08/27 11:12:24;;;;;;;7.60;5.90;;;;;;;;;;5040127;28;20835;-75
2023/08/27 11:14:51;;;;;;;6.50;5.68;;;;;;;;;;5037056;28;20931;-78
2023/08/27 11:17:22;;;;;;;6.80;4.68;;;;;;;;;;5033981;28;20441;-79
2023/08/27 11:19:50;;;;;;;7.30;5.80;;;;;;;;;;5038491;28;20973;-76
2023/08/27 11:22:19;;;;;;;6.13;5.53;;;;;;;;;;5034482;28;20473;-76
2023/08/27 11:24:47;;;;;;;6.32;5.47;;;;;;;;;;5020650;28;20515;-77
2023/08/27 11:27:18;;;;;;;8.77;5.67;;;;;;;;;;5040859;28;20856;-75
2023/08/27 11:29:47;;;;;;;11.18;6.55;;;;;;;;;;5039243;28;20520;-75
2023/08/27 11:32:14;;;;;;;7.85;5.80;;;;;;;;;;5041912;28;20425;-77
2023/08/27 11:34:43;;;;;;;4.90;4.47;;;;;;;;;;5032341;28;20498;-75
2023/08/27 11:37:10;;;;;;;6.03;4.93;;;;;;;;;;5043687;28;20444;-76
2023/08/27 11:39:38;;;;;;;6.00;4.50;;;;;;;;;;5029709;28;20518;-74
2023/08/27 11:42:10;;;;;;;4.90;3.88;;;;;;;;;;5036296;28;20437;-76
2023/08/27 11:44:47;;;;;;;4.38;3.30;;;;;;;;;;5038964;28;20460;-75
2023/08/27 11:47:14;;;;;;;2.40;2.20;;;;;;;;;;5036222;28;20542;-73
2023/08/27 11:49:41;;;;;;;2.22;2.00;;;;;;;;;;5035389;28;20490;-77
2023/08/27 11:52:09;;;;;;;2.15;1.92;;;;;;;;;;5038866;28;20429;-79
2023/08/27 11:54:37;;;;;;;2.88;1.90;;;;;;;;;;5033701;28;21050;-76
2023/08/27 11:57:06;;;;;;;1.70;1.60;;;;;;;;;;5038598;28;20481;-75
2023/08/27 11:59:38;;;;;;;2.37;1.80;;;;;;;;;;5036120;28;20432;-79
2023/08/27 12:02:07;;;;;;;2.00;1.80;;;;;;;;;;5037602;28;20800;-76
2023/08/27 12:04:34;;;;;;;1.77;1.60;;;;;;;;;;5035972;28;20441;-77
2023/08/27 12:07:02;;;;;;;1.90;1.70;;;;;;;;;;5008173;28;20439;-76
2023/08/27 12:09:30;;;;;;;2.05;1.75;;;;;;;;;;5023108;28;20602;-77
2023/08/27 12:12:02;;;;;;;1.80;1.70;;;;;;;;;;5012447;28;20559;-73
2023/08/27 12:14:29;;;;;;;3.03;1.67;;;;;;;;;;5024575;28;20573;-73
2023/08/27 12:17:05;;;;;;;1.77;1.58;;;;;;;;;;5018522;28;20439;-76
2023/08/27 12:19:32;;;;;;;1.27;1.17;;;;;;;;;;5038676;28;21297;-76
2023/08/27 12:21:59;;;;;;;2.63;1.35;;;;;;;;;;5018647;28;20462;-73
2023/08/27 12:24:43;;;;;;;1.42;1.33;;;;;;;;;;5023158;28;20433;-76
2023/08/27 12:27:12;;;;;;;2.95;1.30;;;;;;;;;;5016651;28;20441;-69
2023/08/27 12:29:42;;;;;;;1.40;1.30;;;;;;;;;;5021786;28;20526;-76
2023/08/27 12:32:10;;;;;;;1.55;1.45;;;;;;;;;;5005438;28;20446;-78
2023/08/27 12:34:38;;;;;;;3.13;1.50;;;;;;;;;;5020276;28;20438;-75
2023/08/27 12:37:06;;;;;;;2.05;1.60;;;;;;;;;;5014933;28;20552;-69
2023/08/27 12:39:33;;;;;;;1.65;1.55;;;;;;;;;;5013188;28;21008;-75
2023/08/27 12:42:01;;;;;;;1.50;1.40;;;;;;;;;;5016423;28;21248;-71
2023/08/27 12:44:28;;;;;;;1.33;1.20;;;;;;;;;;5017292;28;20504;-71
2023/08/27 12:46:56;;;;;;;3.00;1.40;;;;;;;;;;5013934;28;20497;-69
2023/08/27 12:49:24;;;;;;;1.30;1.20;;;;;;;;;;5013545;28;20434;-74
2023/08/27 12:51:51;;;;;;;1.50;1.40;;;;;;;;;;5017291;28;20804;-73
2023/08/27 12:54:18;;;;;;;1.55;1.45;;;;;;;;;;5027704;28;20439;-75
2023/08/27 12:56:48;;;;;;;1.50;1.40;;;;;;;;;;4999612;28;20794;-74
2023/08/27 12:59:16;;;;;;;2.50;2.03;;;;;;;;;;5026823;28;20539;-73
2023/08/27 13:01:43;;;;;;;2.30;1.77;;;;;;;;;;5013052;28;20508;-69
2023/08/27 13:04:11;;;;;;;1.50;1.27;;;;;;;;;;5010024;28;20441;-71
2023/08/27 13:06:38;;;;;;;1.23;0.90;;;;;;;;;;5014964;28;20468;-71
2023/08/27 13:09:06;;;;;;;1.40;0.80;;;;;;;;;;5011436;28;20540;-71
2023/08/27 13:11:36;;;;;;;0.80;0.80;;;;;;;;;;5008592;28;20455;-72
2023/08/27 13:14:07;;;;;;;0.85;0.85;;;;;;;;;;5011563;28;21201;-69
2023/08/27 13:16:38;;;;;;;1.00;1.00;;;;;;;;;;5007859;28;20485;-70
2023/08/27 13:19:06;;;;;;;4.50;1.00;;;;;;;;;;5009177;28;20494;-68
2023/08/27 13:21:33;;;;;;;1.20;0.93;;;;;;;;;;5011506;28;20428;-68
2023/08/27 13:24:03;;;;;;;1.45;0.70;;;;;;;;;;5022233;28;20533;-68
2023/08/27 13:26:30;;;;;;;0.95;0.93;;;;;;;;;;5012230;28;20439;-67
2023/08/27 13:28:58;;;;;;;0.77;0.77;;;;;;;;;;5013228;28;20449;-66
2023/08/27 13:31:26;;;;;;;2.20;0.90;;;;;;;;;;5012365;28;20435;-68
2023/08/27 13:33:53;;;;;;;0.77;0.77;;;;;;;;;;5008854;28;20461;-68
2023/08/27 13:36:21;;;;;;;1.30;0.70;;;;;;;;;;5010953;28;20473;-69
2023/08/27 13:38:48;;;;;;;0.77;0.77;;;;;;;;;;5013614;28;21250;-69
2023/08/27 13:41:16;;;;;;;2.00;0.88;;;;;;;;;;5010348;28;20438;-69
2023/08/27 13:43:43;;;;;;;1.52;0.90;;;;;;;;;;5013038;28;20436;-72
2023/08/27 13:46:10;;;;;;;1.42;0.80;;;;;;;;;;5010587;28;20479;-68
2023/08/27 13:48:37;;;;;;;1.13;1.00;;;;;;;;;;5005776;28;20458;-70
2023/08/27 13:51:05;;;;;;;1.50;1.00;;;;;;;;;;5008929;28;20431;-63
2023/08/27 13:53:32;;;;;;;2.00;1.00;;;;;;;;;;5010050;28;20552;-65
2023/08/27 13:55:59;;;;;;;0.80;0.80;;;;;;;;;;5009494;28;20442;-65
2023/08/27 13:58:27;;;;;;;1.70;0.90;;;;;;;;;;5008440;28;21562;-65
2023/08/27 14:00:54;;;;;;;1.70;0.90;;;;;;;;;;5009185;28;20442;-64
2023/08/27 14:03:23;;;;;;;1.15;0.93;;;;;;;;;;5008198;28;20462;-69
2023/08/27 14:05:50;;;;;;;0.88;0.88;;;;;;;;;;5007459;28;21137;-71
2023/08/27 14:08:24;;;;;;;1.80;1.10;;;;;;;;;;5003461;28;20525;-71
2023/08/27 14:10:51;;;;;;;0.80;0.80;;;;;;;;;;5023793;28;20443;-69
2023/08/27 14:13:18;;;;;;;0.82;0.60;;;;;;;;;;5006282;28;20441;-71
2023/08/27 14:15:46;;;;;;;1.02;0.80;;;;;;;;;;5012733;28;20435;-70
2023/08/27 14:18:14;;;;;;;0.80;0.75;;;;;;;;;;5009678;28;20534;-70
2023/08/27 14:20:41;;;;;;;0.57;0.57;;;;;;;;;;5011293;28;20430;-67
2023/08/27 14:23:08;;;;;;;0.67;0.67;;;;;;;;;;5013779;28;20548;-72
2023/08/27 14:25:36;;;;;;;0.70;0.70;;;;;;;;;;5008738;28;20438;-70
2023/08/27 14:28:03;;;;;;;1.08;0.60;;;;;;;;;;5008528;28;20500;-68
2023/08/27 14:30:30;;;;;;;1.42;0.70;;;;;;;;;;5012009;28;20438;-68
2023/08/27 14:32:58;;;;;;;1.70;0.60;;;;;;;;;;5007388;28;20426;-68
2023/08/27 14:35:32;;;;;;;0.60;0.60;;;;;;;;;;5011702;28;20489;-68
2023/08/27 14:38:00;;;;;;;0.60;0.60;;;;;;;;;;5024585;28;20427;-69
2023/08/27 14:40:27;;;;;;;1.80;0.70;;;;;;;;;;5007707;28;20439;-67
2023/08/27 14:42:54;;;;;;;0.82;0.75;;;;;;;;;;5006367;28;20893;-62
2023/08/27 14:45:21;;;;;;;1.23;0.70;;;;;;;;;;5011730;28;21214;-63
2023/08/27 14:47:50;;;;;;;0.82;0.68;;;;;;;;;;5005456;28;20469;-63